sensor_id;sensor_type;location;lat;lon;timestamp;pressure;altitude;pressure_sealevel;temperature;humidity
64876;BME280;51369;49.862;9.908;2023-04-08T00:01:51;98583.78;;;6.75;76.82
64876;BME280;51369;49.862;9.908;2023-04-08T00:04:17;98583.88;;;6.72;76.97
64876;BME280;51369;49.862;9.908;2023-04-08T00:06:43;98580.34;;;6.70;76.84
64876;BME280;51369;49.862;9.908;2023-04-08T00:09:08;98589.34;;;6.67;76.82
64876;BME280;51369;49.862;9.908;2023-04-08T00:11:33;98586.69;;;6.66;76.28
64876;BME280;51369;49.862;9.908;2023-04-08T00:13:59;98597.47;;;6.64;76.34
64876;BME280;51369;49.862;9.908;2023-04-08T00:16:24;98585.03;;;6.60;76.48
64876;BME280;51369;49.862;9.908;2023-04-08T00:18:50;98592.31;;;6.55;76.83
64876;BME280;51369;49.862;9.908;2023-04-08T00:21:16;98595.09;;;6.50;77.32
64876;BME280;51369;49.862;9.908;2023-04-08T00:23:44;98604.16;;;6.45;77.84
64876;BME280;51369;49.862;9.908;2023-04-08T00:26:10;98601.59;;;6.40;77.41
64876;BME280;51369;49.862;9.908;2023-04-08T00:28:37;98600.81;;;6.35;77.85
64876;BME280;51369;49.862;9.908;2023-04-08T00:31:03;98601.75;;;6.33;78.00
64876;BME280;51369;49.862;9.908;2023-04-08T00:33:29;98601.78;;;6.31;77.49
64876;BME280;51369;49.862;9.908;2023-04-08T00:35:54;98600.97;;;6.28;77.40
64876;BME280;51369;49.862;9.908;2023-04-08T00:38:19;98604.66;;;6.24;77.74
64876;BME280;51369;49.862;9.908;2023-04-08T00:40:45;98599.38;;;6.19;77.28
64876;BME280;51369;49.862;9.908;2023-04-08T00:43:10;98601.25;;;6.15;77.17
64876;BME280;51369;49.862;9.908;2023-04-08T00:45:36;98595.09;;;6.10;77.29
64876;BME280;51369;49.862;9.908;2023-04-08T00:48:04;98600.56;;;6.06;76.79
64876;BME280;51369;49.862;9.908;2023-04-08T00:50:30;98606.97;;;5.99;76.99
64876;BME280;51369;49.862;9.908;2023-04-08T00:52:55;98603.56;;;5.91;76.72
64876;BME280;51369;49.862;9.908;2023-04-08T00:55:21;98609.06;;;5.81;76.63
64876;BME280;51369;49.862;9.908;2023-04-08T00:57:47;98603.88;;;5.72;77.17
64876;BME280;51369;49.862;9.908;2023-04-08T01:00:13;98600.44;;;5.66;77.63
64876;BME280;51369;49.862;9.908;2023-04-08T01:02:44;98604.19;;;5.57;77.15
64876;BME280;51369;49.862;9.908;2023-04-08T01:05:14;98606.06;;;5.52;77.89
64876;BME280;51369;49.862;9.908;2023-04-08T01:07:47;98607.97;;;5.45;77.84
64876;BME280;51369;49.862;9.908;2023-04-08T01:10:28;98609.88;;;5.39;77.99
64876;BME280;51369;49.862;9.908;2023-04-08T01:12:56;98604.56;;;5.37;79.14
64876;BME280;51369;49.862;9.908;2023-04-08T01:15:27;98605.53;;;5.33;78.26
64876;BME280;51369;49.862;9.908;2023-04-08T01:17:54;98599.34;;;5.30;79.19
64876;BME280;51369;49.862;9.908;2023-04-08T01:20:25;98604.72;;;5.28;79.28
64876;BME280;51369;49.862;9.908;2023-04-08T01:23:21;98603.00;;;5.24;79.05
64876;BME280;51369;49.862;9.908;2023-04-08T01:25:52;98597.72;;;5.21;78.54
64876;BME280;51369;49.862;9.908;2023-04-08T01:28:19;98608.50;;;5.18;79.35
64876;BME280;51369;49.862;9.908;2023-04-08T01:30:46;98615.69;;;5.14;79.30
64876;BME280;51369;49.862;9.908;2023-04-08T01:33:15;98609.50;;;5.12;79.56
64876;BME280;51369;49.862;9.908;2023-04-08T01:35:42;98610.47;;;5.08;79.37
64876;BME280;51369;49.862;9.908;2023-04-08T01:38:13;98608.75;;;5.03;78.56
64876;BME280;51369;49.862;9.908;2023-04-08T01:40:40;98604.41;;;4.97;79.14
64876;BME280;51369;49.862;9.908;2023-04-08T01:43:07;98604.53;;;4.89;78.73
64876;BME280;51369;49.862;9.908;2023-04-08T01:45:34;98599.28;;;4.83;79.34
64876;BME280;51369;49.862;9.908;2023-04-08T01:48:00;98596.69;;;4.79;79.63
64876;BME280;51369;49.862;9.908;2023-04-08T01:50:26;98600.34;;;4.73;80.27
64876;BME280;51369;49.862;9.908;2023-04-08T01:52:53;98600.41;;;4.69;79.98
64876;BME280;51369;49.862;9.908;2023-04-08T01:55:19;98596.88;;;4.67;80.47
64876;BME280;51369;49.862;9.908;2023-04-08T01:57:49;98603.13;;;4.66;80.23
64876;BME280;51369;49.862;9.908;2023-04-08T02:00:19;98596.00;;;4.66;80.49
64876;BME280;51369;49.862;9.908;2023-04-08T02:02:45;98604.88;;;4.68;81.22
64876;BME280;51369;49.862;9.908;2023-04-08T02:05:12;98605.78;;;4.67;81.38
64876;BME280;51369;49.862;9.908;2023-04-08T02:07:37;98607.53;;;4.68;80.55
64876;BME280;51369;49.862;9.908;2023-04-08T02:10:03;98603.09;;;4.69;80.86
64876;BME280;51369;49.862;9.908;2023-04-08T02:12:29;98608.44;;;4.69;80.69
64876;BME280;51369;49.862;9.908;2023-04-08T02:14:55;98605.75;;;4.69;80.15
64876;BME280;51369;49.862;9.908;2023-04-08T02:17:48;98600.44;;;4.67;80.32
64876;BME280;51369;49.862;9.908;2023-04-08T02:20:22;98601.28;;;4.69;79.59
64876;BME280;51369;49.862;9.908;2023-04-08T02:22:59;98606.63;;;4.71;79.67
64876;BME280;51369;49.862;9.908;2023-04-08T02:25:28;98604.81;;;4.73;79.68
64876;BME280;51369;49.862;9.908;2023-04-08T02:27:55;98601.25;;;4.72;80.01
64876;BME280;51369;49.862;9.908;2023-04-08T02:30:22;98608.38;;;4.72;78.53
64876;BME280;51369;49.862;9.908;2023-04-08T02:32:50;98611.09;;;4.70;79.22
64876;BME280;51369;49.862;9.908;2023-04-08T02:35:18;98605.78;;;4.67;78.17
64876;BME280;51369;49.862;9.908;2023-04-08T02:37:47;98614.72;;;4.66;78.51
64876;BME280;51369;49.862;9.908;2023-04-08T02:40:32;98616.53;;;4.63;78.20
64876;BME280;51369;49.862;9.908;2023-04-08T02:42:58;98626.31;;;4.65;78.73
64876;BME280;51369;49.862;9.908;2023-04-08T02:45:27;98623.63;;;4.65;79.24
64876;BME280;51369;49.862;9.908;2023-04-08T02:47:54;98624.53;;;4.64;78.47
64876;BME280;51369;49.862;9.908;2023-04-08T02:50:20;98627.19;;;4.67;79.06
64876;BME280;51369;49.862;9.908;2023-04-08T02:52:45;98621.81;;;4.69;79.05
64876;BME280;51369;49.862;9.908;2023-04-08T02:55:11;98626.25;;;4.70;79.30
64876;BME280;51369;49.862;9.908;2023-04-08T02:57:38;98636.97;;;4.68;78.29
64876;BME280;51369;49.862;9.908;2023-04-08T03:00:04;98637.00;;;4.65;77.64
64876;BME280;51369;49.862;9.908;2023-04-08T03:02:30;98637.97;;;4.61;77.07
64876;BME280;51369;49.862;9.908;2023-04-08T03:04:55;98632.69;;;4.56;77.33
64876;BME280;51369;49.862;9.908;2023-04-08T03:07:21;98641.66;;;4.52;76.68
64876;BME280;51369;49.862;9.908;2023-04-08T03:09:46;98634.56;;;4.50;77.53
64876;BME280;51369;49.862;9.908;2023-04-08T03:12:12;98637.28;;;4.47;77.07
64876;BME280;51369;49.862;9.908;2023-04-08T03:14:37;98628.41;;;4.43;76.70
64876;BME280;51369;49.862;9.908;2023-04-08T03:17:02;98622.19;;;4.43;76.64
64876;BME280;51369;49.862;9.908;2023-04-08T03:19:28;98631.97;;;4.44;77.04
64876;BME280;51369;49.862;9.908;2023-04-08T03:21:53;98635.53;;;4.44;78.20
64876;BME280;51369;49.862;9.908;2023-04-08T03:24:20;98639.03;;;4.49;77.97
64876;BME280;51369;49.862;9.908;2023-04-08T03:26:45;98635.41;;;4.53;78.11
64876;BME280;51369;49.862;9.908;2023-04-08T03:29:10;98640.66;;;4.60;78.30
64876;BME280;51369;49.862;9.908;2023-04-08T03:31:36;98639.66;;;4.67;79.27
64876;BME280;51369;49.862;9.908;2023-04-08T03:34:01;98643.09;;;4.75;78.21
64876;BME280;51369;49.862;9.908;2023-04-08T03:36:27;98639.41;;;4.83;78.83
64876;BME280;51369;49.862;9.908;2023-04-08T03:38:52;98638.41;;;4.90;78.81
64876;BME280;51369;49.862;9.908;2023-04-08T03:41:18;98646.28;;;5.00;78.58
64876;BME280;51369;49.862;9.908;2023-04-08T03:43:44;98645.28;;;5.07;78.76
64876;BME280;51369;49.862;9.908;2023-04-08T03:46:10;98646.06;;;5.13;78.28
64876;BME280;51369;49.862;9.908;2023-04-08T03:48:35;98643.28;;;5.19;77.58
64876;BME280;51369;49.862;9.908;2023-04-08T03:51:00;98638.69;;;5.24;77.48
64876;BME280;51369;49.862;9.908;2023-04-08T03:53:26;98638.63;;;5.29;77.81
64876;BME280;51369;49.862;9.908;2023-04-08T03:55:53;98632.28;;;5.33;78.16
64876;BME280;51369;49.862;9.908;2023-04-08T03:58:19;98635.81;;;5.37;78.74
64876;BME280;51369;49.862;9.908;2023-04-08T04:00:45;98639.28;;;5.42;79.15
64876;BME280;51369;49.862;9.908;2023-04-08T04:03:10;98640.09;;;5.45;78.87
64876;BME280;51369;49.862;9.908;2023-04-08T04:05:37;98641.84;;;5.48;78.51
64876;BME280;51369;49.862;9.908;2023-04-08T04:08:03;98643.63;;;5.49;78.70
64876;BME280;51369;49.862;9.908;2023-04-08T04:10:28;98643.59;;;5.50;78.88
64876;BME280;51369;49.862;9.908;2023-04-08T04:12:54;98642.69;;;5.51;79.02
64876;BME280;51369;49.862;9.908;2023-04-08T04:15:19;98646.22;;;5.53;78.68
64876;BME280;51369;49.862;9.908;2023-04-08T04:17:49;98649.75;;;5.55;78.53
64876;BME280;51369;49.862;9.908;2023-04-08T04:20:16;98647.03;;;5.57;79.20
64876;BME280;51369;49.862;9.908;2023-04-08T04:22:41;98647.91;;;5.57;78.39
64876;BME280;51369;49.862;9.908;2023-04-08T04:25:07;98648.81;;;5.58;78.30
64876;BME280;51369;49.862;9.908;2023-04-08T04:27:33;98650.56;;;5.59;78.58
64876;BME280;51369;49.862;9.908;2023-04-08T04:29:59;98662.22;;;5.56;78.55
64876;BME280;51369;49.862;9.908;2023-04-08T04:32:25;98652.47;;;5.52;77.61
64876;BME280;51369;49.862;9.908;2023-04-08T04:34:51;98657.00;;;5.49;77.99
64876;BME280;51369;49.862;9.908;2023-04-08T04:37:16;98658.84;;;5.45;77.12
64876;BME280;51369;49.862;9.908;2023-04-08T04:39:42;98651.72;;;5.44;77.76
64876;BME280;51369;49.862;9.908;2023-04-08T04:42:08;98667.78;;;5.44;77.23
64876;BME280;51369;49.862;9.908;2023-04-08T04:44:33;98671.34;;;5.46;78.54
64876;BME280;51369;49.862;9.908;2023-04-08T04:46:58;98661.50;;;5.47;78.23
64876;BME280;51369;49.862;9.908;2023-04-08T04:49:24;98662.34;;;5.50;78.30
64876;BME280;51369;49.862;9.908;2023-04-08T04:51:49;98659.59;;;5.53;78.50
64876;BME280;51369;49.862;9.908;2023-04-08T04:54:14;98658.69;;;5.54;79.21
64876;BME280;51369;49.862;9.908;2023-04-08T04:56:40;98665.84;;;5.54;78.34
64876;BME280;51369;49.862;9.908;2023-04-08T04:59:05;98666.69;;;5.56;79.04
64876;BME280;51369;49.862;9.908;2023-04-08T05:01:31;98666.66;;;5.57;78.68
64876;BME280;51369;49.862;9.908;2023-04-08T05:03:56;98668.44;;;5.59;78.99
64876;BME280;51369;49.862;9.908;2023-04-08T05:06:23;98671.13;;;5.57;78.66
64876;BME280;51369;49.862;9.908;2023-04-08T05:08:48;98678.25;;;5.58;78.43
64876;BME280;51369;49.862;9.908;2023-04-08T05:11:15;98668.34;;;5.63;78.36
64876;BME280;51369;49.862;9.908;2023-04-08T05:13:43;98680.78;;;5.67;78.89
64876;BME280;51369;49.862;9.908;2023-04-08T05:16:08;98678.94;;;5.71;79.29
64876;BME280;51369;49.862;9.908;2023-04-08T05:18:34;98685.13;;;5.74;79.26
64876;BME280;51369;49.862;9.908;2023-04-08T05:21:01;98688.66;;;5.76;78.36
64876;BME280;51369;49.862;9.908;2023-04-08T05:23:26;98694.00;;;5.76;78.61
64876;BME280;51369;49.862;9.908;2023-04-08T05:25:52;98690.38;;;5.79;78.50
64876;BME280;51369;49.862;9.908;2023-04-08T05:28:17;98686.75;;;5.81;78.07
64876;BME280;51369;49.862;9.908;2023-04-08T05:30:50;98687.63;;;5.83;77.42
64876;BME280;51369;49.862;9.908;2023-04-08T05:33:16;98692.91;;;5.86;78.22
64876;BME280;51369;49.862;9.908;2023-04-08T05:35:41;98686.66;;;5.89;78.62
64876;BME280;51369;49.862;9.908;2023-04-08T05:38:06;98687.47;;;5.93;77.41
64876;BME280;51369;49.862;9.908;2023-04-08T05:40:32;98696.34;;;5.96;77.26
64876;BME280;51369;49.862;9.908;2023-04-08T05:42:57;98692.66;;;6.02;78.20
64876;BME280;51369;49.862;9.908;2023-04-08T05:45:23;98705.91;;;6.09;77.76
64876;BME280;51369;49.862;9.908;2023-04-08T05:47:48;98707.56;;;6.16;77.85
64876;BME280;51369;49.862;9.908;2023-04-08T05:50:13;98702.97;;;6.23;77.48
64876;BME280;51369;49.862;9.908;2023-04-08T05:52:43;98710.84;;;6.31;78.26
64876;BME280;51369;49.862;9.908;2023-04-08T05:55:09;98709.78;;;6.39;78.29
64876;BME280;51369;49.862;9.908;2023-04-08T05:57:35;98702.47;;;6.47;78.01
64876;BME280;51369;49.862;9.908;2023-04-08T06:00:00;98710.34;;;6.55;77.76
64876;BME280;51369;49.862;9.908;2023-04-08T06:02:26;98719.13;;;6.63;77.95
64876;BME280;51369;49.862;9.908;2023-04-08T06:04:51;98718.09;;;6.69;76.92
64876;BME280;51369;49.862;9.908;2023-04-08T06:07:17;98721.50;;;6.77;76.96
64876;BME280;51369;49.862;9.908;2023-04-08T06:09:42;98726.72;;;6.83;76.64
64876;BME280;51369;49.862;9.908;2023-04-08T06:12:07;98723.91;;;6.89;76.40
64876;BME280;51369;49.862;9.908;2023-04-08T06:14:33;98728.19;;;6.96;76.56
64876;BME280;51369;49.862;9.908;2023-04-08T06:16:58;98728.06;;;7.02;76.34
64876;BME280;51369;49.862;9.908;2023-04-08T06:19:24;98733.25;;;7.10;76.62
64876;BME280;51369;49.862;9.908;2023-04-08T06:21:49;98733.09;;;7.16;75.71
64876;BME280;51369;49.862;9.908;2023-04-08T06:24:15;98735.59;;;7.24;76.43
64876;BME280;51369;49.862;9.908;2023-04-08T06:26:41;98727.38;;;7.31;76.05
64876;BME280;51369;49.862;9.908;2023-04-08T06:29:06;98739.72;;;7.38;75.27
64876;BME280;51369;49.862;9.908;2023-04-08T06:31:32;98729.72;;;7.45;75.53
64876;BME280;51369;49.862;9.908;2023-04-08T06:33:57;98728.72;;;7.49;74.63
64876;BME280;51369;49.862;9.908;2023-04-08T06:36:23;98741.16;;;7.53;74.35
64876;BME280;51369;49.862;9.908;2023-04-08T06:38:49;98744.63;;;7.58;74.10
64876;BME280;51369;49.862;9.908;2023-04-08T06:41:15;98744.53;;;7.61;74.28
64876;BME280;51369;49.862;9.908;2023-04-08T06:43:40;98744.38;;;7.67;73.52
64876;BME280;51369;49.862;9.908;2023-04-08T06:46:06;98744.28;;;7.72;73.56
64876;BME280;51369;49.862;9.908;2023-04-08T06:48:31;98750.41;;;7.77;73.75
64876;BME280;51369;49.862;9.908;2023-04-08T06:50:58;98743.13;;;7.82;73.46
64876;BME280;51369;49.862;9.908;2023-04-08T06:53:24;98742.97;;;7.88;72.72
64876;BME280;51369;49.862;9.908;2023-04-08T06:55:49;98740.16;;;7.93;72.81
64876;BME280;51369;49.862;9.908;2023-04-08T06:58:15;98746.28;;;7.98;72.54
64876;BME280;51369;49.862;9.908;2023-04-08T07:00:43;98742.56;;;8.03;72.19
64876;BME280;51369;49.862;9.908;2023-04-08T07:03:09;98752.22;;;8.10;71.36
64876;BME280;51369;49.862;9.908;2023-04-08T07:05:37;98752.03;;;8.18;71.97
64876;BME280;51369;49.862;9.908;2023-04-08T07:08:03;98774.22;;;8.26;71.87
64876;BME280;51369;49.862;9.908;2023-04-08T07:10:28;98768.66;;;8.32;71.47
64876;BME280;51369;49.862;9.908;2023-04-08T07:12:54;98771.22;;;8.38;70.04
64876;BME280;51369;49.862;9.908;2023-04-08T07:15:19;98768.41;;;8.43;69.43
64876;BME280;51369;49.862;9.908;2023-04-08T07:17:45;98776.38;;;8.46;69.08
64876;BME280;51369;49.862;9.908;2023-04-08T07:20:11;98771.94;;;8.45;68.69
64876;BME280;51369;49.862;9.908;2023-04-08T07:22:38;98779.13;;;8.44;68.34
64876;BME280;51369;49.862;9.908;2023-04-08T07:25:04;98777.34;;;8.43;67.89
64876;BME280;51369;49.862;9.908;2023-04-08T07:27:30;98778.38;;;8.39;66.57
64876;BME280;51369;49.862;9.908;2023-04-08T07:29:55;98780.22;;;8.37;67.38
64876;BME280;51369;49.862;9.908;2023-04-08T07:32:20;98771.34;;;8.32;67.27
64876;BME280;51369;49.862;9.908;2023-04-08T07:34:46;98778.53;;;8.32;67.53
64876;BME280;51369;49.862;9.908;2023-04-08T07:37:11;98781.28;;;8.30;67.47
64876;BME280;51369;49.862;9.908;2023-04-08T07:39:37;98786.63;;;8.32;67.04
64876;BME280;51369;49.862;9.908;2023-04-08T07:42:02;98790.19;;;8.32;67.47
64876;BME280;51369;49.862;9.908;2023-04-08T07:44:27;98793.78;;;8.33;67.52
64876;BME280;51369;49.862;9.908;2023-04-08T07:46:53;98795.56;;;8.34;67.06
64876;BME280;51369;49.862;9.908;2023-04-08T07:49:18;98803.63;;;8.32;65.65
64876;BME280;51369;49.862;9.908;2023-04-08T07:51:44;98801.88;;;8.31;65.06
64876;BME280;51369;49.862;9.908;2023-04-08T07:54:09;98804.59;;;8.30;64.85
64876;BME280;51369;49.862;9.908;2023-04-08T07:56:36;98801.06;;;8.28;65.03
64876;BME280;51369;49.862;9.908;2023-04-08T07:59:05;98809.19;;;8.26;64.55
64876;BME280;51369;49.862;9.908;2023-04-08T08:01:31;98816.31;;;8.27;65.07
64876;BME280;51369;49.862;9.908;2023-04-08T08:03:59;98815.41;;;8.28;64.79
64876;BME280;51369;49.862;9.908;2023-04-08T08:06:25;98818.94;;;8.30;64.24
64876;BME280;51369;49.862;9.908;2023-04-08T08:08:51;98810.88;;;8.30;64.49
64876;BME280;51369;49.862;9.908;2023-04-08T08:11:17;98820.69;;;8.31;64.54
64876;BME280;51369;49.862;9.908;2023-04-08T08:13:43;98807.22;;;8.34;65.02
64876;BME280;51369;49.862;9.908;2023-04-08T08:16:08;98806.16;;;8.40;64.88
64876;BME280;51369;49.862;9.908;2023-04-08T08:18:36;98808.69;;;8.46;64.74
64876;BME280;51369;49.862;9.908;2023-04-08T08:21:02;98814.78;;;8.53;64.79
64876;BME280;51369;49.862;9.908;2023-04-08T08:23:27;98813.78;;;8.57;64.30
64876;BME280;51369;49.862;9.908;2023-04-08T08:26:06;98819.06;;;8.60;63.74
64876;BME280;51369;49.862;9.908;2023-04-08T08:28:34;98821.59;;;8.66;64.38
64876;BME280;51369;49.862;9.908;2023-04-08T08:30:59;98816.00;;;8.72;63.96
64876;BME280;51369;49.862;9.908;2023-04-08T08:33:25;98814.97;;;8.76;63.31
64876;BME280;51369;49.862;9.908;2023-04-08T08:35:51;98822.94;;;8.80;63.91
64876;BME280;51369;49.862;9.908;2023-04-08T08:38:17;98822.75;;;8.87;63.63
64876;BME280;51369;49.862;9.908;2023-04-08T08:40:43;98822.63;;;8.91;63.02
64876;BME280;51369;49.862;9.908;2023-04-08T08:43:09;98822.44;;;8.97;62.77
64876;BME280;51369;49.862;9.908;2023-04-08T08:45:39;98839.44;;;8.99;63.46
64876;BME280;51369;49.862;9.908;2023-04-08T08:48:06;98842.88;;;9.04;63.32
64876;BME280;51369;49.862;9.908;2023-04-08T08:50:33;98837.38;;;9.09;63.03
64876;BME280;51369;49.862;9.908;2023-04-08T08:52:58;98846.16;;;9.16;62.70
64876;BME280;51369;49.862;9.908;2023-04-08T08:55:24;98844.25;;;9.19;62.60
64876;BME280;51369;49.862;9.908;2023-04-08T08:57:50;98844.13;;;9.24;62.92
64876;BME280;51369;49.862;9.908;2023-04-08T09:00:16;98847.56;;;9.29;62.84
64876;BME280;51369;49.862;9.908;2023-04-08T09:02:42;98850.00;;;9.36;63.37
64876;BME280;51369;49.862;9.908;2023-04-08T09:05:08;98850.53;;;9.49;62.75
64876;BME280;51369;49.862;9.908;2023-04-08T09:07:37;98853.78;;;9.60;62.86
64876;BME280;51369;49.862;9.908;2023-04-08T09:10:07;98858.69;;;9.75;62.36
64876;BME280;51369;49.862;9.908;2023-04-08T09:12:32;98855.50;;;9.91;62.27
64876;BME280;51369;49.862;9.908;2023-04-08T09:15:06;98851.47;;;10.04;62.36
64876;BME280;51369;49.862;9.908;2023-04-08T09:17:36;98851.91;;;10.18;61.91
64876;BME280;51369;49.862;9.908;2023-04-08T09:22:34;98856.25;;;10.49;61.88
64876;BME280;51369;49.862;9.908;2023-04-08T09:25:26;98842.94;;;10.69;61.77
64876;BME280;51369;49.862;9.908;2023-04-08T09:27:51;98849.38;;;10.90;60.87
64876;BME280;51369;49.862;9.908;2023-04-08T09:30:22;98855.03;;;11.07;60.07
64876;BME280;51369;49.862;9.908;2023-04-08T09:32:49;98850.06;;;11.20;59.54
64876;BME280;51369;49.862;9.908;2023-04-08T09:35:17;98850.47;;;11.32;59.29
64876;BME280;51369;49.862;9.908;2023-04-08T09:37:42;98857.25;;;11.44;59.65
64876;BME280;51369;49.862;9.908;2023-04-08T09:40:08;98859.59;;;11.53;60.01
64876;BME280;51369;49.862;9.908;2023-04-08T09:42:36;98861.88;;;11.64;59.09
64876;BME280;51369;49.862;9.908;2023-04-08T09:45:07;98858.88;;;11.71;59.02
64876;BME280;51369;49.862;9.908;2023-04-08T09:47:43;98860.31;;;11.82;59.36
64876;BME280;51369;49.862;9.908;2023-04-08T09:50:08;98855.16;;;11.97;58.81
64876;BME280;51369;49.862;9.908;2023-04-08T09:52:43;98863.59;;;12.12;59.21
64876;BME280;51369;49.862;9.908;2023-04-08T09:55:11;98852.03;;;12.28;58.86
64876;BME280;51369;49.862;9.908;2023-04-08T09:57:44;98861.41;;;12.42;57.53
64876;BME280;51369;49.862;9.908;2023-04-08T10:00:14;98858.16;;;12.54;58.66
64876;BME280;51369;49.862;9.908;2023-04-08T10:05:29;98855.28;;;12.79;57.68
64876;BME280;51369;49.862;9.908;2023-04-08T10:07:55;98845.94;;;12.86;57.34
64876;BME280;51369;49.862;9.908;2023-04-08T10:10:22;98852.84;;;12.93;57.62
64876;BME280;51369;49.862;9.908;2023-04-08T10:12:48;98852.09;;;12.89;56.84
64876;BME280;51369;49.862;9.908;2023-04-08T10:15:27;98861.44;;;12.82;57.30
64876;BME280;51369;49.862;9.908;2023-04-08T10:17:54;98855.28;;;12.79;57.87
64876;BME280;51369;49.862;9.908;2023-04-08T10:23:11;98860.81;;;12.55;57.67
64876;BME280;51369;49.862;9.908;2023-04-08T10:25:42;98855.72;;;12.48;57.50
64876;BME280;51369;49.862;9.908;2023-04-08T10:30:53;98837.97;;;12.41;58.29
64876;BME280;51369;49.862;9.908;2023-04-08T10:33:38;98830.94;;;12.36;57.95
64876;BME280;51369;49.862;9.908;2023-04-08T10:38:36;98831.19;;;12.30;58.29
64876;BME280;51369;49.862;9.908;2023-04-08T10:41:02;98847.69;;;12.24;57.17
64876;BME280;51369;49.862;9.908;2023-04-08T10:43:35;98852.47;;;12.18;58.18
64876;BME280;51369;49.862;9.908;2023-04-08T10:46:01;98849.84;;;12.16;58.26
64876;BME280;51369;49.862;9.908;2023-04-08T10:48:27;98849.91;;;12.15;58.00
64876;BME280;51369;49.862;9.908;2023-04-08T10:51:00;98852.59;;;12.15;57.72
64876;BME280;51369;49.862;9.908;2023-04-08T10:53:29;98850.78;;;12.15;57.85
64876;BME280;51369;49.862;9.908;2023-04-08T10:56:15;98853.34;;;12.18;58.62
64876;BME280;51369;49.862;9.908;2023-04-08T10:58:54;98862.16;;;12.23;58.36
64876;BME280;51369;49.862;9.908;2023-04-08T11:01:24;98852.97;;;12.27;57.94
64876;BME280;51369;49.862;9.908;2023-04-08T11:03:50;98862.84;;;12.28;58.02
64876;BME280;51369;49.862;9.908;2023-04-08T11:06:16;98863.81;;;12.27;57.96
64876;BME280;51369;49.862;9.908;2023-04-08T11:08:42;98865.56;;;12.28;58.15
64876;BME280;51369;49.862;9.908;2023-04-08T11:11:09;98861.03;;;12.29;57.59
64876;BME280;51369;49.862;9.908;2023-04-08T11:13:43;98865.56;;;12.28;57.89
64876;BME280;51369;49.862;9.908;2023-04-08T11:16:09;98855.50;;;12.32;57.79
64876;BME280;51369;49.862;9.908;2023-04-08T11:18:36;98859.06;;;12.32;58.27
64876;BME280;51369;49.862;9.908;2023-04-08T11:21:07;98867.19;;;12.32;57.89
64876;BME280;51369;49.862;9.908;2023-04-08T11:23:33;98861.66;;;12.35;58.58
64876;BME280;51369;49.862;9.908;2023-04-08T11:25:58;98856.94;;;12.41;57.92
64876;BME280;51369;49.862;9.908;2023-04-08T11:28:24;98858.56;;;12.45;57.17
64876;BME280;51369;49.862;9.908;2023-04-08T11:30:50;98863.91;;;12.46;57.31
64876;BME280;51369;49.862;9.908;2023-04-08T11:33:17;98866.69;;;12.45;57.57
64876;BME280;51369;49.862;9.908;2023-04-08T11:35:43;98869.38;;;12.45;57.51
64876;BME280;51369;49.862;9.908;2023-04-08T11:38:10;98859.19;;;12.51;58.85
64876;BME280;51369;49.862;9.908;2023-04-08T11:40:36;98853.31;;;12.62;59.33
64876;BME280;51369;49.862;9.908;2023-04-08T11:43:11;98853.91;;;12.68;57.72
64876;BME280;51369;49.862;9.908;2023-04-08T11:45:38;98849.31;;;12.70;57.91
64876;BME280;51369;49.862;9.908;2023-04-08T11:48:15;98847.75;;;12.65;57.62
64876;BME280;51369;49.862;9.908;2023-04-08T11:50:42;98845.19;;;12.62;57.83
64876;BME280;51369;49.862;9.908;2023-04-08T11:53:20;98844.50;;;12.57;58.20
64876;BME280;51369;49.862;9.908;2023-04-08T11:55:47;98843.41;;;12.61;57.54
64876;BME280;51369;49.862;9.908;2023-04-08T11:58:13;98850.66;;;12.60;58.02
64876;BME280;51369;49.862;9.908;2023-04-08T12:00:39;98843.28;;;12.64;57.98
64876;BME280;51369;49.862;9.908;2023-04-08T12:03:05;98837.47;;;12.73;57.66
64876;BME280;51369;49.862;9.908;2023-04-08T12:05:31;98846.81;;;12.86;58.36
64876;BME280;51369;49.862;9.908;2023-04-08T12:07:56;98847.88;;;13.02;57.31
64876;BME280;51369;49.862;9.908;2023-04-08T12:10:22;98848.09;;;13.18;57.67
64876;BME280;51369;49.862;9.908;2023-04-08T12:12:49;98843.88;;;13.31;56.29
64876;BME280;51369;49.862;9.908;2023-04-08T12:15:15;98843.44;;;13.41;57.09
64876;BME280;51369;49.862;9.908;2023-04-08T12:17:40;98846.41;;;13.55;57.03
64876;BME280;51369;49.862;9.908;2023-04-08T12:20:06;98860.94;;;13.73;56.63
64876;BME280;51369;49.862;9.908;2023-04-08T12:22:32;98857.69;;;13.83;56.93
64876;BME280;51369;49.862;9.908;2023-04-08T12:24:57;98851.88;;;13.91;56.20
64876;BME280;51369;49.862;9.908;2023-04-08T12:27:23;98857.22;;;13.92;56.00
64876;BME280;51369;49.862;9.908;2023-04-08T12:29:48;98856.34;;;13.92;56.37
64876;BME280;51369;49.862;9.908;2023-04-08T12:32:14;98858.56;;;13.84;55.93
64876;BME280;51369;49.862;9.908;2023-04-08T12:34:39;98861.81;;;13.73;55.84
64876;BME280;51369;49.862;9.908;2023-04-08T12:37:05;98861.44;;;13.62;56.86
64876;BME280;51369;49.862;9.908;2023-04-08T12:39:31;98868.31;;;13.50;57.31
64876;BME280;51369;49.862;9.908;2023-04-08T12:41:56;98868.88;;;13.38;57.53
64876;BME280;51369;49.862;9.908;2023-04-08T12:44:22;98864.16;;;13.23;57.24
64876;BME280;51369;49.862;9.908;2023-04-08T12:46:47;98861.09;;;13.10;57.29
64876;BME280;51369;49.862;9.908;2023-04-08T12:49:13;98862.53;;;12.98;57.39
64876;BME280;51369;49.862;9.908;2023-04-08T12:51:38;98866.53;;;12.90;57.66
64876;BME280;51369;49.862;9.908;2023-04-08T12:54:04;98865.09;;;12.81;57.49
64876;BME280;51369;49.862;9.908;2023-04-08T12:56:30;98862.72;;;12.74;58.08
64876;BME280;51369;49.862;9.908;2023-04-08T12:58:57;98859.28;;;12.70;57.75
64876;BME280;51369;49.862;9.908;2023-04-08T13:01:22;98859.19;;;12.71;59.22
64876;BME280;51369;49.862;9.908;2023-04-08T13:03:48;98861.72;;;12.76;59.10
64876;BME280;51369;49.862;9.908;2023-04-08T13:06:13;98857.03;;;12.80;58.86
64876;BME280;51369;49.862;9.908;2023-04-08T13:08:39;98860.44;;;12.85;58.87
64876;BME280;51369;49.862;9.908;2023-04-08T13:11:06;98855.75;;;12.88;58.57
64876;BME280;51369;49.862;9.908;2023-04-08T13:13:32;98857.38;;;12.92;58.63
64876;BME280;51369;49.862;9.908;2023-04-08T13:15:57;98858.25;;;12.93;58.98
64876;BME280;51369;49.862;9.908;2023-04-08T13:18:23;98851.94;;;12.92;58.92
64876;BME280;51369;49.862;9.908;2023-04-08T13:20:48;98851.06;;;12.92;58.79